createdAt,value
2022-07-30T15:19:18.011Z,55.28
2022-07-30T15:24:44.004Z,54.87
2022-07-30T15:30:18.794Z,54.52
2022-07-30T16:00:41.175Z,56.78
2022-07-30T16:05:53.041Z,56.92
2022-07-30T16:10:56.392Z,56.99
2022-07-30T16:15:57.794Z,57.04
2022-07-30T16:21:01.269Z,57.48
2022-07-30T16:26:12.156Z,57.39
2022-07-30T16:31:13.508Z,57.31
2022-07-30T16:36:14.905Z,57.40
2022-07-30T16:41:16.237Z,57.52
2022-07-30T16:46:19.078Z,57.66
2022-07-30T16:51:20.835Z,57.59
2022-07-30T16:56:22.472Z,57.76
2022-07-30T17:01:23.905Z,58.04
2022-07-30T17:06:25.532Z,58.09
2022-07-30T17:11:47.574Z,58.33
2022-07-30T17:16:48.360Z,58.71
2022-07-30T17:21:49.762Z,58.90
2022-07-30T17:26:51.161Z,59.04
2022-07-30T17:31:52.618Z,59.15
2022-07-30T17:36:57.010Z,59.22
2022-07-30T17:42:06.713Z,59.54
2022-07-30T17:47:14.157Z,59.85
2022-07-30T17:52:17.644Z,60.04
2022-07-30T17:57:20.173Z,60.26
2022-07-30T18:02:28.550Z,60.39
2022-07-30T18:07:30.615Z,60.67
2022-07-30T18:12:31.941Z,61.02
2022-07-30T18:17:33.745Z,61.36
2022-07-30T18:22:35.073Z,61.18
2022-07-30T18:27:37.868Z,61.04
2022-07-30T18:32:39.238Z,61.06
2022-07-30T18:37:41.749Z,61.23
2022-07-30T18:42:43.291Z,61.26
2022-07-30T18:47:45.240Z,61.34
2022-07-30T18:52:46.691Z,61.43
2022-07-30T18:57:52.165Z,61.32
2022-07-30T19:02:53.866Z,61.17
2022-07-30T19:07:57.316Z,61.23
2022-07-30T19:13:00.512Z,61.06
2022-07-30T19:18:01.904Z,61.13
2022-07-30T19:23:04.304Z,61.11
2022-07-30T19:28:05.726Z,61.20
2022-07-30T19:33:14.021Z,61.12
2022-07-30T19:38:23.803Z,61.05
2022-07-30T19:43:25.312Z,60.86
2022-07-30T19:53:52.362Z,60.86
2022-07-30T19:58:53.867Z,60.82
2022-07-30T20:03:55.512Z,60.73
2022-07-30T20:09:02.692Z,60.82
2022-07-30T20:14:05.600Z,61.32
2022-07-30T20:19:07.894Z,61.40
2022-07-30T20:24:09.526Z,61.27
2022-07-30T20:34:32.534Z,61.84
2022-07-30T20:39:34.094Z,62.31
2022-07-30T20:44:36.921Z,62.40
2022-07-30T20:49:39.722Z,62.57
2022-07-30T20:54:43.824Z,62.90
2022-07-30T20:59:46.694Z,62.78
2022-07-30T21:04:48.217Z,62.73
2022-07-30T21:09:52.550Z,62.96
2022-07-30T21:14:54.201Z,62.92
2022-07-30T21:19:55.619Z,63.38
2022-07-30T21:24:57.059Z,63.27
2022-07-30T21:29:58.487Z,63.22
2022-07-30T21:35:01.612Z,63.13
2022-07-30T21:40:10.113Z,63.13
2022-07-30T21:45:11.518Z,63.05
2022-07-30T22:34:41.561Z,62.91
2022-07-30T22:46:14.957Z,62.59
2022-07-30T22:52:09.127Z,62.38
2022-07-30T22:57:37.962Z,62.32
2022-07-30T23:02:40.410Z,62.31
2022-07-30T23:07:42.722Z,62.42
2022-07-30T23:12:15.153Z,60.71
2022-07-30T23:12:18.142Z,61.64
2022-07-30T23:12:45.411Z,62.08
2022-07-30T23:17:47.585Z,62.14
2022-07-30T23:22:49.242Z,62.25
2022-07-30T23:27:51.949Z,62.01
2022-07-30T23:32:53.658Z,61.89
2022-07-30T23:37:55.302Z,62.24
2022-07-30T23:42:57.926Z,62.64
2022-07-30T23:48:02.615Z,62.92
2022-07-30T23:53:04.981Z,63.08
2022-07-30T23:58:09.405Z,63.26
